Terminal Aerodrome Forecast
Issued by NWS

Home | Current Version | Previous Version | Text Only | Print | Product List | Glossary On
Versions: 1 2 3 4 5 6 7 8 9 10 11 12 13
000
FTUS45 KABQ 221100
TAFLVS
TAF
KLVS 221120Z 2212/2312 VRB05KT P6SM FEW120
     FM221900 12011KT P6SM VCTS SCT090CB BKN150
      TEMPO 2219/2222 VRB15G30KT -TSRA BKN060CB
     FM222200 17009KT P6SM VCSH BKN090
     FM230100 18008KT P6SM SCT090 BKN150=

USA.gov is the U.S. government's official web portal to all federal, state and local government web resources and services.